New Braunfels, TX (78132)

10:11 AM CST die 28o January, anno 2015 (GMT -0600)
Oakwood Estates | Change Station
CLOSE
Current Station
Personal Weather Stations
Location: New Braunfels, TX
Elevation: 758 ft
Nearby Weather Stations

Elev 758 ft 29.72 °N, 98.14 °W | Updated 5 seconds ago

Serena
Serena
68.9 °F
Feels Like 68.9 °F
N
2.0
Ventus Variabilis Ventus from Magis Auster quam Eurus
Gusts 7.0 mph

Hodie
High -- | Low -- °F
--% Chance of Precip.
Yesterday
High -- | Low -- °F
Precip. -- in
7:24 AM 6:06 PM
Waxing Gibbous, 66% visible
Pressio 30.17 in
Visibilitas 10.0 milia passuum
Clouds Serena
Frigus in quo Ros apparet 42 °F
Umor 38%
Rainfall 0.00 in
Snow Depth Not available.
UV 2 out of 12
Pollen 8.70 out of 12
Air Quality Not available.
Flu Activity Not available.
METAR KBAZ 281551Z 23005KT 10SM CLR 17/06 A3018 RMK AO2 SLP216 T01720061

More Conditions Fewer Conditions

Pressio 30.17 in
Visibilitas 10.0 milia passuum
Clouds Serena
Frigus in quo Ros apparet 42 °F
Umor 38%
Rainfall 0.00 in
Snow Depth Not available.
UV 2 out of 12
Pollen 8.70 out of 12
Air Quality Not available.
Flu Activity Not available.
METAR KBAZ 281551Z 23005KT 10SM CLR 17/06 A3018 RMK AO2 SLP216 T01720061

More Conditions Fewer Conditions

10-Day Weather Forecast

Almanac

Astronomy

Jan. 28, 2015 Rise Set
Actual Time
Civil Twilight
Nautical Twilight
Astronomical Twilight
Moon
Length Of Visible Light
Length of Day
Tomorrow will be .
, % of the Moon is Illuminated

Today's Extremes

State Highs State Lows

Community

WunderPhotos

Upload Photos

1,791,189 photos uploaded!

WunderBlogs® & News

Nearby

Air Quality

  Air Quality AQ Index Pollutant
Not available.

Snow Depth

Station Depth Elevation

Earthquake Activity

City Distance Mag. Time & Date
Minimum magnitude displayed is 2.5.

Coastal Water Temperatures

Locus Calor

Nearby Weather Stations